Archival Weather

Chicago O'Hare International

Chicago, Illinois (KORD)

Report from: Friday, September 23, 2022 1:51 AM CDT
Current time: Wednesday, September 28, 2022 3:33 AM CDT

Current weather
Weather history
Weather forecast

Temperature10.6°C (51.1°F)
Dew point6.7°C (44.1°F)
Winds 3 kts (1.5 m/s, 3.5 mph) West (270°)
Visibility10 mi. (16.1 km)
Clouds Scattered clouds 4,000 ft. (1,219 m)
Altimeter30.24 in.Hg (1024 mB)
Relative humidity77 %
Density altitude-748 ft. (-228 m)
Sea-level pressure102.4 kPa (1024 mB, 30.24 in.Hg)
Remarks Automated weather observing station with precipitation discriminator
Flight conditions Visual Meteorological Conditions
Raw dataKORD 230651Z 27003KT 10SM SCT040 11/07 A3024 RMK AO2 SLP241 T01060067
An error has occurred. This application may no longer respond until reloaded. Reload 🗙